Time;durP1;ratioP1;P1;durP2;ratioP2;P2;SDS_P1;SDS_P2;PMS_P1;PMS_P2;Temp;Humidity;BMP_temperature;BMP_pressure;BME280_temperature;BME280_humidity;BME280_pressure;Samples;Min_cycle;Max_cycle;Signal;HPM_P1;HPM_P2
2023/08/02 00:00:39;;;;;;;11.88;3.40;;;;;;;16.13;96.58;99981.78;5050977;28;20055;-90
2023/08/02 00:03:04;;;;;;;11.02;3.50;;;;;;;16.03;96.90;99990.00;5052889;28;20036;-90
2023/08/02 00:05:41;;;;;;;8.90;3.28;;;;;;;16.09;97.20;99983.66;5052850;28;20124;-90
2023/08/02 00:08:19;;;;;;;7.80;3.25;;;;;;;16.06;97.45;99985.50;5034871;28;20093;-92
2023/08/02 00:10:52;;;;;;;8.65;3.50;;;;;;;16.03;97.40;99987.34;5019127;28;20060;-89
2023/08/02 00:13:33;;;;;;;;;;;;;;;;;;;;;
2023/08/02 00:16:02;;;;;;;9.70;3.13;;;;;;;15.86;97.51;99972.72;5056400;28;20028;-89
2023/08/02 00:18:46;;;;;;;8.30;2.90;;;;;;;15.86;98.07;99981.56;5040092;28;20457;-90
2023/08/02 00:21:27;;;;;;;12.00;3.50;;;;;;;15.71;98.17;99966.81;5025276;28;20032;-90
2023/08/02 00:23:55;;;;;;;10.32;3.38;;;;;;;15.66;99.12;99979.38;5059862;28;20044;-90
2023/08/02 00:26:20;;;;;;;8.10;3.70;;;;;;;15.83;99.17;100002.94;5041338;28;20419;-89
2023/08/02 00:29:05;;;;;;;;;;;;;;;;;;;;;
2023/08/02 00:31:38;;;;;;;9.68;3.45;;;;;;;15.62;100.00;99982.13;5065056;28;20136;-89
2023/08/02 00:34:09;;;;;;;7.63;3.10;;;;;;;15.53;100.00;99973.44;5049048;28;20449;-89
2023/08/02 00:37:05;;;;;;;;;;;;;;;;;;;;;
2023/08/02 00:39:33;;;;;;;8.45;3.20;;;;;;;15.59;100.00;99996.41;5051472;28;20426;-91
2023/08/02 00:41:58;;;;;;;13.98;3.25;;;;;;;15.31;100.00;99948.22;5058674;28;20043;-89
2023/08/02 00:44:32;;;;;;;11.38;3.30;;;;;;;15.35;100.00;99955.22;5041969;28;20033;-89
2023/08/02 00:47:05;;;;;;;9.27;3.15;;;;;;;15.53;100.00;99965.44;5038265;28;20083;-89
2023/08/02 00:50:00;;;;;;;10.13;3.08;;;;;;;15.69;100.00;99981.09;5054400;28;20370;-88
2023/08/02 00:52:37;;;;;;;6.72;3.10;;;;;;;15.39;100.00;99916.97;5031124;28;20043;-89
2023/08/02 00:55:12;;;;;;;10.23;3.00;;;;;;;15.56;100.00;99948.53;5037838;28;20372;-89
2023/08/02 00:57:40;;;;;;;6.40;2.97;;;;;;;15.72;100.00;99959.72;5054473;28;20037;-89
2023/08/02 01:00:12;;;;;;;7.93;2.88;;;;;;;15.51;100.00;99913.16;5054106;28;20406;-89
2023/08/02 01:03:30;;;;;;;;;;;;;;;;;;;;;
2023/08/02 01:06:24;;;;;;;11.25;3.30;;;;;;;15.82;100.00;99971.91;5040143;28;20392;-89
2023/08/02 01:09:17;;;;;;;9.38;2.90;;;;;;;15.69;100.00;99947.34;5052890;28;20037;-89
2023/08/02 01:12:10;;;;;;;10.80;3.53;;;;;;;15.50;100.00;99906.06;5020584;28;20029;-89
2023/08/02 01:14:49;;;;;;;9.65;3.45;;;;;;;15.51;100.00;99919.34;5037125;28;20036;-89
2023/08/02 01:17:53;;;;;;;;;;;;;;;;;;;;;
2023/08/02 01:20:39;;;;;;;10.77;3.40;;;;;;;15.75;100.00;99943.66;5055338;28;20029;-90
2023/08/02 01:23:17;;;;;;;;;;;;;;;;;;;;;
2023/08/02 01:25:50;;;;;;;7.93;3.42;;;;;;;15.74;100.00;99949.91;5052886;28;20098;-90
2023/08/02 01:28:31;;;;;;;11.38;3.30;;;;;;;15.49;100.00;99914.97;5037143;28;20381;-90
2023/08/02 01:31:23;;;;;;;9.25;3.13;;;;;;;15.56;100.00;99905.06;5037136;28;20079;-89
2023/08/02 01:33:57;;;;;;;6.97;3.07;;;;;;;15.61;100.00;99916.47;5053396;28;20029;-90
2023/08/02 01:36:36;;;;;;;7.10;3.17;;;;;;;15.65;100.00;99918.16;5036903;28;20035;-91
2023/08/02 01:39:16;;;;;;;10.20;3.65;;;;;;;15.61;100.00;99914.66;5036844;28;20083;-89
2023/08/02 01:41:59;;;;;;;11.30;3.50;;;;;;;15.89;100.00;99954.00;5054428;28;20032;-90
2023/08/02 01:44:35;;;;;;;10.13;3.38;;;;;;;15.78;100.00;99925.81;5054873;28;20035;-89
2023/08/02 01:47:20;;;;;;;10.57;3.40;;;;;;;15.93;100.00;99944.97;5054740;28;20100;-90
2023/08/02 01:49:50;;;;;;;9.90;3.35;;;;;;;15.96;100.00;99935.13;5036421;28;20505;-90
2023/08/02 01:52:20;;;;;;;8.55;3.38;;;;;;;15.98;100.00;99932.44;5053473;28;20074;-89
2023/08/02 01:55:08;;;;;;;7.72;3.40;;;;;;;16.01;100.00;99937.66;5036059;28;20075;-90
2023/08/02 01:57:34;;;;;;;9.32;3.20;;;;;;;15.65;100.00;99865.78;5054032;28;20047;-89
2023/08/02 02:00:04;;;;;;;9.48;3.25;;;;;;;15.62;100.00;99856.97;5036385;28;20025;-91
2023/08/02 02:02:57;;;;;;;10.40;3.42;;;;;;;15.96;100.00;99919.13;5053158;28;20044;-90
2023/08/02 02:05:23;;;;;;;8.57;3.22;;;;;;;15.96;100.00;99904.94;5020826;28;20045;-90
2023/08/02 02:07:54;;;;;;;9.65;3.58;;;;;;;15.96;100.00;99905.81;5052848;28;20020;-90
2023/08/02 02:14:03;;;;;;;10.25;3.53;;;;;;;16.01;100.00;99879.03;5052506;28;20040;-90
2023/08/02 02:16:37;;;;;;;8.07;3.60;;;;;;;15.87;100.00;99858.09;5053745;28;20345;-90
2023/08/02 02:19:12;;;;;;;8.85;3.42;;;;;;;15.78;100.00;99847.69;5053858;28;20029;-90
2023/08/02 02:21:40;;;;;;;10.80;3.42;;;;;;;15.88;100.00;99861.63;5036050;28;20028;-90
2023/08/02 02:24:24;;;;;;;10.00;3.67;;;;;;;15.69;100.00;99827.50;5035994;28;20425;-89
2023/08/02 02:27:09;;;;;;;12.02;3.40;;;;;;;15.77;100.00;99824.63;5035928;28;20534;-89
2023/08/02 02:29:34;;;;;;;8.93;3.55;;;;;;;15.55;100.00;99792.34;5036089;28;20025;-89
2023/08/02 02:34:52;;;;;;;8.93;3.53;;;;;;;15.94;100.00;99829.50;5045957;28;20060;-89
2023/08/02 02:37:43;;;;;;;;;;;;;;;;;;;;;
2023/08/02 02:40:21;;;;;;;;;;;;;;;;;;;;;
2023/08/02 02:43:19;;;;;;;6.80;3.30;;;;;;;15.87;100.00;99799.47;5052478;28;20047;-89
2023/08/02 02:46:06;;;;;;;;;;;;;;;;;;;;;
2023/08/02 02:48:37;;;;;;;10.50;3.33;;;;;;;15.93;100.00;99780.69;5053749;28;20037;-88
2023/08/02 02:51:10;;;;;;;10.70;3.50;;;;;;;15.78;100.00;99773.97;5053477;28;20040;-89
2023/08/02 02:53:42;;;;;;;7.65;3.30;;;;;;;15.71;100.00;99763.53;5035711;28;20064;-90
2023/08/02 02:56:32;;;;;;;6.72;3.15;;;;;;;15.77;100.00;99769.56;5053188;28;20025;-89
2023/08/02 02:59:15;;;;;;;8.27;3.20;;;;;;;15.91;100.00;99798.47;5051573;28;20041;-89
2023/08/02 03:02:02;;;;;;;9.30;3.53;;;;;;;15.77;100.00;99748.25;5052453;28;20087;-89
2023/08/02 03:04:32;;;;;;;11.50;3.58;;;;;;;15.93;100.00;99779.78;5035383;28;20029;-89
2023/08/02 03:07:12;;;;;;;9.82;3.63;;;;;;;16.01;100.00;99786.63;5035574;28;20033;-89
2023/08/02 03:09:44;;;;;;;8.50;3.50;;;;;;;15.82;100.00;99741.94;5019149;28;20039;-90
2023/08/02 03:12:15;;;;;;;6.72;3.15;;;;;;;15.83;100.00;99715.25;5053058;28;20033;-89
2023/08/02 03:14:46;;;;;;;7.43;3.22;;;;;;;15.72;100.00;99699.59;5053220;28;20090;-90
2023/08/02 03:17:24;;;;;;;9.32;3.40;;;;;;;15.98;100.00;99729.94;5035461;28;20419;-90
2023/08/02 03:20:12;;;;;;;;;;;;;;;;;;;;;
2023/08/02 03:22:48;;;;;;;7.05;3.08;;;;;;;15.78;100.00;99694.06;5052466;28;20044;-90
2023/08/02 03:25:16;;;;;;;6.03;3.17;;;;;;;15.94;100.00;99715.81;5053072;28;20025;-90
2023/08/02 03:28:12;;;;;;;;;;;;;;;;;;;;;
2023/08/02 03:30:57;;;;;;;8.68;3.28;;;;;;;15.74;100.00;99687.09;5053132;28;20029;-90
2023/08/02 03:33:32;;;;;;;10.40;3.42;;;;;;;15.61;100.00;99651.03;5052942;28;20497;-90
2023/08/02 03:36:13;;;;;;;8.73;3.78;;;;;;;15.93;100.00;99718.50;5018634;28;20025;-90
2023/08/02 03:38:58;;;;;;;8.23;3.13;;;;;;;15.55;100.00;99664.53;5035006;28;20029;-90
2023/08/02 03:41:31;;;;;;;9.45;3.70;;;;;;;15.90;100.00;99719.50;5035144;28;20088;-90
2023/08/02 03:44:14;;;;;;;7.38;3.58;;;;;;;15.50;100.00;99647.81;5051828;28;20045;-90
2023/08/02 03:46:49;;;;;;;9.27;3.47;;;;;;;15.57;100.00;99659.16;5051653;28;20033;-91
2023/08/02 03:49:20;;;;;;;6.47;3.35;;;;;;;15.60;100.00;99657.28;5036779;28;20036;-90
2023/08/02 03:51:49;;;;;;;8.70;3.60;;;;;;;15.63;100.00;99659.88;5055942;28;20036;-90
2023/08/02 03:54:23;;;;;;;9.73;3.60;;;;;;;15.70;100.00;99672.09;5056949;28;20460;-89
2023/08/02 03:56:51;;;;;;;8.07;3.47;;;;;;;15.55;100.00;99627.25;5056733;28;20116;-89
2023/08/02 03:59:20;;;;;;;10.18;3.78;;;;;;;15.52;100.00;99628.22;5056443;28;20117;-90
2023/08/02 04:01:55;;;;;;;11.02;3.92;;;;;;;15.84;100.00;99670.81;5038594;28;20040;-90
2023/08/02 04:04:23;;;;;;;7.82;3.60;;;;;;;15.63;100.00;99629.69;5055404;28;20111;-90
2023/08/02 04:06:59;;;;;;;12.32;3.80;;;;;;;15.76;100.00;99647.09;5056350;28;20032;-90
2023/08/02 04:09:40;;;;;;;8.05;4.10;;;;;;;15.49;100.00;99604.34;5055061;28;20033;-89
2023/08/02 04:12:17;;;;;;;8.47;3.80;;;;;;;15.60;100.00;99609.38;5056519;28;20062;-90
2023/08/02 04:14:46;;;;;;;6.47;3.60;;;;;;;15.49;100.00;99587.50;5038877;28;20367;-89
2023/08/02 04:17:32;;;;;;;;;;;;;;;;;;;;;
2023/08/02 04:20:18;;;;;;;;;;;;;;;;;;;;;
2023/08/02 04:23:29;;;;;;;;;;;;;;;;;;;;;
2023/08/02 04:26:15;;;;;;;8.27;4.00;;;;;;;15.82;100.00;99624.72;5057378;28;20021;-90
2023/08/02 04:28:58;;;;;;;11.77;4.20;;;;;;;15.45;100.00;99554.75;5041248;28;20517;-89
2023/08/02 04:31:34;;;;;;;9.55;4.47;;;;;;;15.45;100.00;99548.56;5055020;28;20025;-88
2023/08/02 04:34:31;;;;;;;;;;;;;;;;;;;;;
2023/08/02 04:36:59;;;;;;;12.07;4.22;;;;;;;15.65;100.00;99551.53;5054939;28;20036;-89
2023/08/02 04:40:06;;;;;;;9.07;4.10;;;;;;;15.89;100.00;99581.88;5054565;28;20401;-90
2023/08/02 04:42:51;;;;;;;7.20;4.00;;;;;;;15.61;100.00;99523.22;5052109;28;20033;-89
2023/08/02 04:45:16;;;;;;;8.10;4.07;;;;;;;15.52;100.00;99500.41;5037483;28;20037;-88
2023/08/02 04:47:58;;;;;;;9.00;4.32;;;;;;;15.52;100.00;99497.75;5055239;28;20071;-89
2023/08/02 04:56:18;;;;;;;7.78;4.13;;;;;;;15.86;100.00;99525.16;5042260;28;20107;-89
2023/08/02 04:59:15;;;;;;;12.88;4.57;;;;;;;15.55;100.00;99467.50;5056108;28;20461;-89
2023/08/02 05:01:43;;;;;;;8.10;4.75;;;;;;;15.89;100.00;99523.28;5044155;28;20195;-89
2023/08/02 05:04:11;;;;;;;9.40;4.30;;;;;;;15.83;100.00;99504.81;5055778;28;20039;-88
2023/08/02 05:07:09;;;;;;;;;;;;;;;;;;;;;
2023/08/02 05:09:50;;;;;;;9.45;4.70;;;;;;;15.62;100.00;99485.00;5066675;28;20081;-89
2023/08/02 05:12:18;;;;;;;10.40;4.60;;;;;;;15.76;100.00;99509.47;5040770;28;20052;-89
2023/08/02 05:15:11;;;;;;;9.02;4.50;;;;;;;15.65;100.00;99489.41;5060286;28;20071;-90
2023/08/02 05:17:39;;;;;;;9.35;4.53;;;;;;;15.68;100.00;99484.00;5066547;28;20048;-90
2023/08/02 05:20:13;;;;;;;10.93;4.75;;;;;;;15.59;100.00;99466.50;5054511;28;20025;-90
2023/08/02 05:22:51;;;;;;;8.07;4.30;;;;;;;15.81;100.00;99497.81;5076765;28;20025;-91
2023/08/02 05:25:36;;;;;;;;;;;;;;;;;;;;;
2023/08/02 05:28:23;;;;;;;8.63;4.65;;;;;;;15.67;100.00;99453.84;5078115;28;20035;-91
2023/08/02 05:31:20;;;;;;;11.20;4.45;;;;;;;15.45;100.00;99434.97;5078077;28;20070;-91
2023/08/02 05:34:03;;;;;;;6.88;4.43;;;;;;;15.35;100.00;99406.03;5053966;28;20025;-90
2023/08/02 05:36:43;;;;;;;8.52;4.35;;;;;;;15.57;100.00;99428.38;5045565;28;20047;-89
2023/08/02 05:39:11;;;;;;;7.03;4.32;;;;;;;15.49;100.00;99388.69;5076982;28;20028;-88
2023/08/02 05:41:42;;;;;;;8.20;4.60;;;;;;;15.45;100.00;99373.75;5061207;28;20016;-91
2023/08/02 05:44:18;;;;;;;9.43;4.60;;;;;;;15.39;100.00;99363.31;5078004;28;20024;-89
2023/08/02 05:46:56;;;;;;;;;;;;;;;;;;;;;
2023/08/02 05:49:42;;;;;;;7.50;4.30;;;;;;;15.53;100.00;99378.81;5078185;28;20025;-88
2023/08/02 05:52:10;;;;;;;6.72;4.38;;;;;;;15.59;100.00;99386.63;5061402;28;20021;-89
2023/08/02 05:54:40;;;;;;;7.68;4.47;;;;;;;15.50;100.00;99378.91;5060818;28;20036;-89
2023/08/02 05:57:22;;;;;;;7.95;4.68;;;;;;;15.61;100.00;99386.56;5060461;28;20055;-88
2023/08/02 06:00:13;;;;;;;7.35;4.32;;;;;;;15.37;100.00;99340.31;5078295;28;20021;-88
2023/08/02 06:02:39;;;;;;;6.63;4.45;;;;;;;15.73;100.00;99387.06;5060940;28;20021;-88
2023/08/02 06:05:09;;;;;;;7.30;3.88;;;;;;;15.64;100.00;99359.84;5060636;28;20087;-87
2023/08/02 06:07:46;;;;;;;8.20;4.25;;;;;;;15.40;100.00;99310.94;5078242;28;20051;-88
2023/08/02 06:10:25;;;;;;;7.43;4.15;;;;;;;15.57;100.00;99327.22;5077994;28;20204;-87
2023/08/02 06:13:17;;;;;;;9.10;4.30;;;;;;;15.41;100.00;99294.03;5077337;28;20025;-88
2023/08/02 06:15:53;;;;;;;7.68;3.70;;;;;;;15.47;100.00;99293.84;5077480;28;20045;-87
2023/08/02 06:18:37;;;;;;;6.10;4.10;;;;;;;15.74;100.00;99329.31;5060752;28;20032;-88
2023/08/02 06:21:23;;;;;;;;;;;;;;;;;;;;;
2023/08/02 06:23:55;;;;;;;5.13;3.63;;;;;;;15.62;100.00;99292.44;5075018;28;20056;-89
2023/08/02 06:26:32;;;;;;;5.88;3.70;;;;;;;15.51;100.00;99268.88;5055905;28;20068;-87
2023/08/02 06:29:12;;;;;;;;;;;;;;;;;;;;;
2023/08/02 06:31:38;;;;;;;6.07;3.60;;;;;;;15.45;100.00;99237.97;5055042;28;20111;-87
2023/08/02 06:34:06;;;;;;;7.57;3.65;;;;;;;15.78;100.00;99294.53;5057706;28;20063;-88
2023/08/02 06:36:44;;;;;;;6.03;3.72;;;;;;;15.77;100.00;99273.31;5041008;28;20025;-87
2023/08/02 06:39:14;;;;;;;4.95;3.40;;;;;;;15.76;100.00;99267.09;5039488;28;20107;-87
2023/08/02 06:41:40;;;;;;;4.63;3.30;;;;;;;15.50;100.00;99213.84;5036862;28;20132;-89
2023/08/02 06:44:16;;;;;;;;;;;;;;;;;;;;;
2023/08/02 06:46:42;;;;;;;4.80;3.25;;;;;;;15.50;100.00;99193.47;5054936;28;20029;-87
2023/08/02 06:49:33;;;;;;;4.25;3.03;;;;;;;15.88;100.00;99249.78;5057518;28;20492;-86
2023/08/02 06:52:16;;;;;;;7.72;3.22;;;;;;;15.85;100.00;99244.59;5046594;28;20051;-88
2023/08/02 06:54:45;;;;;;;5.10;3.00;;;;;;;15.45;100.00;99151.94;5041675;28;20040;-87
2023/08/02 06:57:15;;;;;;;4.75;3.03;;;;;;;15.89;100.00;99214.25;5039936;28;20052;-87
2023/08/02 06:59:58;;;;;;;4.45;2.92;;;;;;;15.79;100.00;99204.84;5039988;28;20084;-87
2023/08/02 07:05:26;;;;;;;4.53;3.08;;;;;;;15.82;100.00;99177.25;5045369;28;20582;-88
2023/08/02 07:08:05;;;;;;;;;;;;;;;;;;;;;
2023/08/02 07:10:33;;;;;;;6.70;3.30;;;;;;;15.57;100.00;99110.69;5059645;28;20222;-89
2023/08/02 07:13:06;;;;;;;5.07;3.05;;;;;;;15.62;100.00;99133.53;5044603;28;20031;-88
2023/08/02 07:15:40;;;;;;;5.57;3.17;;;;;;;15.91;100.00;99174.25;5064844;28;20029;-88
2023/08/02 07:18:05;;;;;;;4.28;3.08;;;;;;;15.59;100.00;99119.47;5047912;28;20108;-88
2023/08/02 07:20:35;;;;;;;4.13;3.10;;;;;;;15.64;100.00;99133.50;5050225;28;20417;-88
2023/08/02 07:23:03;;;;;;;5.47;3.10;;;;;;;15.72;100.00;99140.31;5052433;28;20086;-89
2023/08/02 07:25:56;;;;;;;4.38;3.20;;;;;;;15.92;100.00;99168.84;5055940;28;20033;-89
2023/08/02 07:28:25;;;;;;;4.15;2.72;;;;;;;15.82;100.00;99145.28;5046494;28;20419;-88
2023/08/02 07:31:03;;;;;;;;;;;;;;;;;;;;;
2023/08/02 07:33:39;;;;;;;3.72;3.00;;;;;;;15.73;100.00;99118.06;5058037;28;20409;-88
2023/08/02 07:36:16;;;;;;;4.72;2.70;;;;;;;15.74;100.00;99119.81;5058668;28;20108;-88
2023/08/02 07:38:45;;;;;;;4.47;2.75;;;;;;;15.80;100.00;99117.81;5057183;28;20029;-88
2023/08/02 07:41:14;;;;;;;5.70;2.78;;;;;;;15.88;100.00;99129.94;5039238;28;20090;-87
2023/08/02 07:43:50;;;;;;;4.47;3.17;;;;;;;15.73;100.00;99086.13;5022664;28;20059;-88
2023/08/02 07:46:17;;;;;;;4.40;3.10;;;;;;;15.78;100.00;99078.81;5022584;28;20032;-88
2023/08/02 07:48:58;;;;;;;5.28;3.25;;;;;;;15.81;100.00;99069.00;5039049;28;20033;-90
2023/08/02 07:51:36;;;;;;;5.20;3.17;;;;;;;15.80;100.00;99062.75;5039256;28;20025;-89
2023/08/02 07:54:22;;;;;;;;;;;;;;;;;;;;;
2023/08/02 07:56:48;;;;;;;4.95;3.38;;;;;;;16.20;100.00;99103.84;5056922;28;20385;-87
2023/08/02 07:59:28;;;;;;;5.80;3.25;;;;;;;16.26;100.00;99107.09;5059573;28;20111;-88
2023/08/02 08:02:06;;;;;;;;;;;;;;;;;;;;;
2023/08/02 08:04:34;;;;;;;5.40;3.50;;;;;;;16.34;100.00;99095.28;5056166;28;20025;-89
2023/08/02 08:07:13;;;;;;;;;;;;;;;;;;;;;
2023/08/02 08:09:50;;;;;;;3.97;3.20;;;;;;;16.10;100.00;99035.84;5056423;28;20029;-88
2023/08/02 08:15:24;;;;;;;5.07;3.28;;;;;;;16.07;100.00;99020.00;5056901;28;20043;-90
2023/08/02 08:17:57;;;;;;;3.60;2.88;;;;;;;16.45;100.00;99085.06;5023370;28;20033;-88
2023/08/02 08:20:28;;;;;;;5.32;2.90;;;;;;;16.27;100.00;99044.91;5021233;28;20042;-89
2023/08/02 08:23:14;;;;;;;5.60;2.88;;;;;;;16.36;100.00;99045.41;5038601;28;20028;-88
2023/08/02 08:26:16;;;;;;;3.85;2.63;;;;;;;16.28;100.00;99025.31;5038706;28;20033;-88
2023/08/02 08:29:10;;;;;;;4.07;2.60;;;;;;;16.42;100.00;99014.06;5039611;28;20033;-89
2023/08/02 08:31:50;;;;;;;3.10;2.42;;;;;;;16.32;100.00;98994.06;5041149;28;20487;-89
2023/08/02 08:34:34;;;;;;;3.30;2.42;;;;;;;16.46;100.00;99013.00;5039173;28;20071;-88
2023/08/02 08:37:11;;;;;;;2.75;2.17;;;;;;;16.68;100.00;99060.94;5039794;28;20051;-91
2023/08/02 08:40:02;;;;;;;3.15;2.40;;;;;;;16.70;100.00;99043.09;5043301;28;20092;-89
2023/08/02 08:42:48;;;;;;;3.20;2.38;;;;;;;16.52;100.00;99004.72;5039891;28;20039;-88
2023/08/02 08:45:43;;;;;;;3.15;2.10;;;;;;;16.59;100.00;99000.00;5058110;28;20028;-89
2023/08/02 08:48:17;;;;;;;2.65;2.20;;;;;;;16.76;100.00;99021.50;5039591;28;20521;-89
2023/08/02 08:50:51;;;;;;;2.70;2.10;;;;;;;16.89;100.00;99027.16;5057684;28;20480;-88
2023/08/02 08:53:42;;;;;;;3.15;2.08;;;;;;;17.12;100.00;99051.94;5041563;28;20048;-87
2023/08/02 08:56:23;;;;;;;2.47;2.10;;;;;;;16.98;100.00;99005.41;5030130;28;20033;-86
2023/08/02 08:59:09;;;;;;;;;;;;;;;;;;;;;
2023/08/02 09:01:38;;;;;;;2.33;2.05;;;;;;;17.32;100.00;99037.72;5043350;28;20038;-87
2023/08/02 09:04:33;;;;;;;4.45;2.22;;;;;;;17.50;100.00;99043.06;5014167;28;20484;-83
2023/08/02 09:07:01;;;;;;;2.90;2.10;;;;;;;17.45;100.00;99025.53;5023022;28;20041;-87
2023/08/02 09:09:47;;;;;;;3.22;2.15;;;;;;;17.32;100.00;98978.97;5038921;28;20061;-90
2023/08/02 09:12:18;;;;;;;3.63;2.30;;;;;;;17.48;100.00;98986.19;5039393;28;20063;-87
2023/08/02 09:15:20;;;;;;;;;;;;;;;;;;;;;
2023/08/02 09:18:03;;;;;;;2.72;2.42;;;;;;;17.80;100.00;98986.47;5037577;28;20054;-85
2023/08/02 09:20:36;;;;;;;3.08;2.45;;;;;;;18.10;100.00;99018.00;5049429;28;20049;-89
2023/08/02 09:23:26;;;;;;;;;;;;;;;;;;;;;
2023/08/02 09:26:33;;;;;;;;;;;;;;;;;;;;;
2023/08/02 09:30:05;;;;;;;3.92;2.72;;;;;;;18.17;100.00;98945.44;5037677;28;20124;-89
2023/08/02 09:32:29;;;;;;;3.05;2.63;;;;;;;18.38;100.00;98946.16;5026076;28;20171;-86
2023/08/02 09:35:10;;;;;;;;;;;;;;;;;;;;;
2023/08/02 09:37:52;;;;;;;3.40;2.40;;;;;;;18.64;100.00;98974.22;5033197;28;20036;-88
2023/08/02 09:40:39;;;;;;;2.83;2.53;;;;;;;18.61;100.00;98947.63;5017832;28;20800;-91
2023/08/02 09:43:27;;;;;;;2.60;2.40;;;;;;;18.63;100.00;98940.41;5038039;28;20459;-87
2023/08/02 09:45:57;;;;;;;2.53;2.30;;;;;;;18.86;100.00;98976.66;5020842;28;20049;-88
2023/08/02 09:48:48;;;;;;;3.85;2.13;;;;;;;18.58;100.00;98925.50;5034239;28;20036;-86
2023/08/02 09:51:42;;;;;;;2.72;2.33;;;;;;;18.65;100.00;98932.28;5016590;28;20037;-89
2023/08/02 09:54:16;;;;;;;2.55;2.35;;;;;;;18.76;100.00;98933.47;5016178;28;20105;-88
2023/08/02 09:56:49;;;;;;;4.00;3.08;;;;;;;18.81;100.00;98909.16;5033929;28;20025;-89
2023/08/02 09:59:20;;;;;;;4.25;2.90;;;;;;;19.18;100.00;98942.78;5032859;28;20029;-87
2023/08/02 10:02:00;;;;;;;4.88;3.20;;;;;;;19.29;100.00;98923.47;5033026;28;20108;-86
2023/08/02 10:07:39;;;;;;;4.75;2.30;;;;;;;19.46;100.00;98942.13;5051302;28;20045;-91
2023/08/02 10:10:23;;;;;;;3.33;2.40;;;;;;;19.37;100.00;98904.28;5018962;28;20024;-89
2023/08/02 10:13:15;;;;;;;3.00;2.30;;;;;;;19.40;100.00;98915.72;5027670;28;20029;-89
2023/08/02 10:16:09;;;;;;;3.22;2.10;;;;;;;19.50;100.00;98918.72;5052723;28;20024;-88
2023/08/02 10:18:58;;;;;;;2.83;2.20;;;;;;;19.75;100.00;98929.81;5052233;28;20052;-87
2023/08/02 10:21:33;;;;;;;2.25;2.00;;;;;;;19.95;100.00;98931.31;5053043;28;20029;-87
2023/08/02 10:24:00;;;;;;;2.88;2.00;;;;;;;19.97;100.00;98888.34;5041156;28;20040;-86
2023/08/02 10:26:32;;;;;;;2.08;1.88;;;;;;;20.36;100.00;98921.78;5052868;28;20020;-85
2023/08/02 10:29:02;;;;;;;2.58;2.00;;;;;;;20.32;100.00;98880.00;5053141;28;20029;-85
2023/08/02 10:31:41;;;;;;;4.15;1.90;;;;;;;20.40;100.00;98878.59;5027952;28;20044;-87
2023/08/02 10:34:56;;;;;;;2.03;1.77;;;;;;;20.69;100.00;98908.16;5034712;28;20168;-86
2023/08/02 10:38:10;;;;;;;3.15;2.10;;;;;;;20.71;100.00;98908.94;5035266;28;20436;-87
2023/08/02 10:41:06;;;;;;;2.33;1.85;;;;;;;20.65;100.00;98912.88;5038269;28;20033;-86
2023/08/02 10:43:31;;;;;;;2.47;2.00;;;;;;;20.45;100.00;98883.66;5051030;28;20472;-86
2023/08/02 10:46:32;;;;;;;2.10;1.90;;;;;;;20.62;100.00;98890.72;5051815;28;20096;-85
2023/08/02 10:49:20;;;;;;;2.15;1.90;;;;;;;20.68;100.00;98891.19;5034976;28;20016;-85
2023/08/02 10:51:48;;;;;;;4.25;2.08;;;;;;;20.63;100.00;98879.00;5037434;28;20036;-87
2023/08/02 10:54:23;;;;;;;3.45;1.67;;;;;;;20.61;100.00;98879.13;5035311;28;20060;-84
2023/08/02 10:57:08;;;;;;;2.70;2.00;;;;;;;20.58;100.00;98891.84;5032203;28;20510;-88
2023/08/02 10:59:33;;;;;;;2.20;1.90;;;;;;;20.48;100.00;98891.56;5032657;28;20025;-86
2023/08/02 11:02:08;;;;;;;2.67;2.17;;;;;;;20.32;100.00;98856.72;5051725;28;20040;-85
2023/08/02 11:04:39;;;;;;;3.10;2.40;;;;;;;20.30;100.00;98850.59;5052340;28;20481;-87
2023/08/02 11:07:17;;;;;;;3.47;2.60;;;;;;;20.19;100.00;98836.97;5031473;28;20041;-87
2023/08/02 11:09:46;;;;;;;3.30;2.60;;;;;;;20.23;100.00;98843.88;5032358;28;20453;-86
2023/08/02 11:12:22;;;;;;;3.50;2.75;;;;;;;20.11;100.00;98820.47;5015225;28;20021;-87
2023/08/02 11:14:56;;;;;;;3.05;2.50;;;;;;;20.19;100.00;98837.84;5015073;28;20026;-86
2023/08/02 11:17:28;;;;;;;3.20;2.63;;;;;;;19.99;100.00;98819.41;5032216;28;20101;-85
2023/08/02 11:20:09;;;;;;;3.00;2.70;;;;;;;19.95;100.00;98821.41;5014996;28;20086;-86
2023/08/02 11:22:48;;;;;;;4.43;3.13;;;;;;;20.27;100.00;98858.81;4999240;28;20037;-88
2023/08/02 11:25:18;;;;;;;3.38;2.70;;;;;;;19.97;100.00;98811.47;5014823;28;20048;-84
2023/08/02 11:27:47;;;;;;;4.45;3.00;;;;;;;20.03;100.00;98820.94;5032764;28;20029;-85
2023/08/02 11:30:28;;;;;;;4.07;2.70;;;;;;;19.80;100.00;98808.94;5015198;28;20037;-86
2023/08/02 11:33:02;;;;;;;2.70;2.00;;;;;;;19.81;100.00;98837.44;5015333;28;20021;-86
2023/08/02 11:35:41;;;;;;;4.45;2.85;;;;;;;19.88;100.00;98856.72;5015748;28;20038;-86
2023/08/02 11:41:23;;;;;;;4.05;3.17;;;;;;;20.36;100.00;98850.22;5032719;28;20116;-86
2023/08/02 11:43:56;;;;;;;4.65;3.15;;;;;;;20.62;100.00;98853.13;5015238;28;20144;-87
2023/08/02 11:46:33;;;;;;;4.40;3.30;;;;;;;20.53;100.00;98790.19;5031994;28;20034;-88
2023/08/02 11:49:29;;;;;;;;;;;;;;;;;;;;;
2023/08/02 11:52:08;;;;;;;3.08;2.60;;;;;;;21.04;100.00;98805.75;5018099;28;20036;-89
2023/08/02 11:57:51;;;;;;;5.90;3.10;;;;;;;21.60;100.00;98801.16;5021831;28;20107;-87
2023/08/02 12:00:26;;;;;;;7.20;3.33;;;;;;;21.84;100.00;98796.81;5030869;28;20496;-86
2023/08/02 12:03:15;;;;;;;4.32;3.20;;;;;;;22.07;100.00;98794.38;5032306;28;20044;-85
2023/08/02 12:05:51;;;;;;;4.90;3.30;;;;;;;22.36;100.00;98828.22;5018323;28;20045;-88
2023/08/02 12:08:36;;;;;;;5.38;3.10;;;;;;;22.22;100.00;98814.84;5052365;28;20104;-86
2023/08/02 12:11:14;;;;;;;9.48;3.38;;;;;;;22.37;99.73;98832.63;5034306;28;20025;-86
2023/08/02 12:13:47;;;;;;;7.28;3.10;;;;;;;22.33;98.17;98811.41;5055441;28;20028;-85
2023/08/02 12:16:27;;;;;;;;;;;;;;;;;;;;;
2023/08/02 12:18:56;;;;;;;7.28;3.00;;;;;;;23.08;92.41;98847.31;5054879;28;20017;-87
2023/08/02 12:21:49;;;;;;;8.32;2.60;;;;;;;23.26;91.61;98831.66;5035037;28;20032;-86
2023/08/02 12:24:29;;;;;;;;;;;;;;;;;;;;;
2023/08/02 12:27:14;;;;;;;7.75;2.80;;;;;;;23.48;86.35;98791.34;5055875;28;20033;-87
2023/08/02 12:30:21;;;;;;;7.75;2.55;;;;;;;23.54;82.45;98789.16;5038171;28;20072;-87
2023/08/02 12:35:51;;;;;;;;;;;;;;;;;;;;;
2023/08/02 12:38:29;;;;;;;6.93;2.60;;;;;;;23.02;78.35;98839.69;5055544;28;20025;-88
2023/08/02 12:41:02;;;;;;;7.57;2.40;;;;;;;22.83;78.11;98804.28;5037770;28;20536;-90
2023/08/02 12:43:40;;;;;;;9.43;2.42;;;;;;;23.10;79.35;98810.38;5036934;28;20036;-91
2023/08/02 12:49:25;;;;;;;8.18;2.53;;;;;;;23.34;75.02;98806.81;5055653;28;20060;-90
2023/08/02 12:52:19;;;;;;;8.32;2.47;;;;;;;23.49;76.21;98822.72;5038492;28;20064;-90
2023/08/02 12:55:03;;;;;;;;;;;;;;;;;;;;;
2023/08/02 12:57:50;;;;;;;7.28;2.40;;;;;;;23.73;71.99;98811.13;5039055;28;20039;-90
2023/08/02 13:00:26;;;;;;;7.82;2.63;;;;;;;23.94;73.97;98851.78;5021986;28;20037;-90
2023/08/02 13:02:59;;;;;;;9.45;2.45;;;;;;;23.38;71.76;98800.22;5037700;28;20033;-90
2023/08/02 13:05:55;;;;;;;;;;;;;;;;;;;;;
2023/08/02 13:08:24;;;;;;;5.30;2.13;;;;;;;23.43;70.11;98808.84;5043426;28;20493;-89
2023/08/02 13:10:57;;;;;;;5.35;2.30;;;;;;;23.95;70.66;98840.00;5020847;28;20108;-89
2023/08/02 13:14:10;;;;;;;;;;;;;;;;;;;;;
2023/08/02 13:16:56;;;;;;;7.88;2.20;;;;;;;24.50;66.08;98854.66;5056365;28;20083;-89
2023/08/02 13:19:32;;;;;;;12.00;2.20;;;;;;;24.35;62.98;98810.78;5054168;28;20495;-90
2023/08/02 13:22:35;;;;;;;7.85;2.25;;;;;;;24.71;61.81;98847.56;5037573;28;20025;-90
2023/08/02 13:25:25;;;;;;;5.65;2.13;;;;;;;24.64;61.40;98803.09;5036892;28;20074;-89
2023/08/02 13:27:58;;;;;;;4.25;2.15;;;;;;;24.82;59.60;98816.97;5054267;28;20461;-87
2023/08/02 13:30:29;;;;;;;7.03;2.10;;;;;;;24.94;58.42;98805.19;5037015;28;20496;-82
2023/08/02 13:32:59;;;;;;;6.05;2.05;;;;;;;25.06;57.23;98849.28;5037069;28;20029;-82
2023/08/02 13:35:38;;;;;;;3.83;1.83;;;;;;;24.69;57.14;98832.44;5055046;28;20445;-84
2023/08/02 13:41:09;;;;;;;4.25;1.90;;;;;;;24.15;60.52;98831.25;5056328;28;20497;-87
2023/08/02 13:43:37;;;;;;;9.80;2.17;;;;;;;24.21;60.35;98844.25;5045601;28;20044;-86
2023/08/02 13:46:14;;;;;;;7.20;1.70;;;;;;;24.03;60.94;98831.34;5037431;28;20034;-87
2023/08/02 13:49:10;;;;;;;;;;;;;;;;;;;;;
2023/08/02 13:51:53;;;;;;;5.90;1.92;;;;;;;23.64;61.57;98817.13;5044333;28;20128;-86